sensor_id;sensor_type;location;lat;lon;timestamp;pressure;altitude;pressure_sealevel;temperature;humidity
40592;BME280;26301;42.832;23.918;2023-09-19T00:07:10;93585.19;;;11.24;100.00
40592;BME280;26301;42.832;23.918;2023-09-19T00:13:31;93580.16;;;11.17;100.00
40592;BME280;26301;42.832;23.918;2023-09-19T00:16:36;93576.34;;;11.08;100.00
40592;BME280;26301;42.832;23.918;2023-09-19T00:22:34;93577.59;;;10.94;100.00
40592;BME280;26301;42.832;23.918;2023-09-19T00:32:41;93548.06;;;10.90;100.00
40592;BME280;26301;42.832;23.918;2023-09-19T00:42:11;93560.09;;;10.84;100.00
40592;BME280;26301;42.832;23.918;2023-09-19T00:45:34;93562.09;;;10.82;100.00
40592;BME280;26301;42.832;23.918;2023-09-19T00:55:10;93559.19;;;10.90;100.00
40592;BME280;26301;42.832;23.918;2023-09-19T01:04:55;93545.25;;;10.91;100.00
40592;BME280;26301;42.832;23.918;2023-09-19T01:31:25;93564.69;;;10.94;100.00
40592;BME280;26301;42.832;23.918;2023-09-19T01:52:14;93556.16;;;10.93;100.00
40592;BME280;26301;42.832;23.918;2023-09-19T01:55:16;93551.09;;;10.87;100.00
40592;BME280;26301;42.832;23.918;2023-09-19T02:08:03;93550.41;;;10.91;100.00
40592;BME280;26301;42.832;23.918;2023-09-19T02:10:59;93557.50;;;10.96;100.00
40592;BME280;26301;42.832;23.918;2023-09-19T02:21:06;93547.28;;;10.89;100.00
40592;BME280;26301;42.832;23.918;2023-09-19T02:34:12;93545.56;;;10.95;100.00
40592;BME280;26301;42.832;23.918;2023-09-19T02:41:02;93519.75;;;10.83;100.00
40592;BME280;26301;42.832;23.918;2023-09-19T02:44:39;93529.72;;;10.91;100.00
40592;BME280;26301;42.832;23.918;2023-09-19T02:47:45;93541.41;;;10.94;100.00
40592;BME280;26301;42.832;23.918;2023-09-19T03:01:35;93533.66;;;11.06;100.00
40592;BME280;26301;42.832;23.918;2023-09-19T03:04:58;93526.47;;;10.96;100.00
40592;BME280;26301;42.832;23.918;2023-09-19T03:11:59;93505.81;;;10.96;100.00
40592;BME280;26301;42.832;23.918;2023-09-19T03:19:21;93524.44;;;10.98;100.00
40592;BME280;26301;42.832;23.918;2023-09-19T03:22:27;93519.06;;;10.99;100.00
40592;BME280;26301;42.832;23.918;2023-09-19T03:28:41;93508.94;;;10.98;100.00
40592;BME280;26301;42.832;23.918;2023-09-19T03:35:31;93515.69;;;10.87;100.00
40592;BME280;26301;42.832;23.918;2023-09-19T03:38:46;93506.94;;;10.88;100.00
40592;BME280;26301;42.832;23.918;2023-09-19T03:49:43;93513.91;;;10.88;100.00
40592;BME280;26301;42.832;23.918;2023-09-19T03:55:52;93517.97;;;10.84;100.00
40592;BME280;26301;42.832;23.918;2023-09-19T03:59:09;93506.38;;;10.86;100.00
40592;BME280;26301;42.832;23.918;2023-09-19T04:02:26;93508.84;;;10.81;100.00
40592;BME280;26301;42.832;23.918;2023-09-19T04:12:37;93514.69;;;10.88;100.00
40592;BME280;26301;42.832;23.918;2023-09-19T04:18:55;93523.31;;;10.94;100.00
40592;BME280;26301;42.832;23.918;2023-09-19T04:36:15;93523.50;;;11.16;100.00
40592;BME280;26301;42.832;23.918;2023-09-19T04:39:19;93502.75;;;11.11;100.00
40592;BME280;26301;42.832;23.918;2023-09-19T04:42:22;93526.41;;;11.31;100.00
40592;BME280;26301;42.832;23.918;2023-09-19T04:45:23;93526.59;;;11.41;100.00
40592;BME280;26301;42.832;23.918;2023-09-19T04:56:00;93520.34;;;11.83;100.00
40592;BME280;26301;42.832;23.918;2023-09-19T04:59:04;93501.97;;;11.84;100.00
40592;BME280;26301;42.832;23.918;2023-09-19T05:05:35;93505.78;;;12.27;100.00
40592;BME280;26301;42.832;23.918;2023-09-19T05:11:47;93501.69;;;12.48;100.00
40592;BME280;26301;42.832;23.918;2023-09-19T05:24:25;93520.50;;;13.16;100.00
40592;BME280;26301;42.832;23.918;2023-09-19T05:27:38;93502.13;;;13.23;100.00
40592;BME280;26301;42.832;23.918;2023-09-19T05:33:15;93502.97;;;13.45;100.00
40592;BME280;26301;42.832;23.918;2023-09-19T05:35:44;93513.59;;;13.71;100.00
40592;BME280;26301;42.832;23.918;2023-09-19T05:38:13;93497.81;;;13.78;100.00
40592;BME280;26301;42.832;23.918;2023-09-19T05:40:39;93507.88;;;13.96;100.00
40592;BME280;26301;42.832;23.918;2023-09-19T05:43:08;93488.19;;;14.05;100.00
40592;BME280;26301;42.832;23.918;2023-09-19T05:45:34;93484.91;;;14.15;100.00
40592;BME280;26301;42.832;23.918;2023-09-19T05:48:13;93494.13;;;14.38;100.00
40592;BME280;26301;42.832;23.918;2023-09-19T05:50:40;93472.84;;;14.36;100.00
40592;BME280;26301;42.832;23.918;2023-09-19T05:53:06;93472.66;;;14.48;100.00
40592;BME280;26301;42.832;23.918;2023-09-19T05:55:32;93470.09;;;14.53;100.00
40592;BME280;26301;42.832;23.918;2023-09-19T05:57:58;93467.25;;;14.54;100.00
40592;BME280;26301;42.832;23.918;2023-09-19T06:00:24;93477.00;;;14.74;100.00
40592;BME280;26301;42.832;23.918;2023-09-19T06:02:56;93477.28;;;14.83;100.00
40592;BME280;26301;42.832;23.918;2023-09-19T06:05:24;93482.56;;;14.93;100.00
40592;BME280;26301;42.832;23.918;2023-09-19T06:07:50;93467.22;;;14.97;100.00
40592;BME280;26301;42.832;23.918;2023-09-19T06:10:17;93465.72;;;15.11;100.00
40592;BME280;26301;42.832;23.918;2023-09-19T06:12:43;93474.88;;;15.24;100.00
40592;BME280;26301;42.832;23.918;2023-09-19T06:15:09;93456.66;;;15.24;100.00
40592;BME280;26301;42.832;23.918;2023-09-19T06:17:43;93461.66;;;15.46;100.00
40592;BME280;26301;42.832;23.918;2023-09-19T06:20:11;93465.88;;;15.62;100.00
40592;BME280;26301;42.832;23.918;2023-09-19T06:22:44;93469.03;;;15.74;100.00
40592;BME280;26301;42.832;23.918;2023-09-19T06:25:11;93454.72;;;15.77;100.00
40592;BME280;26301;42.832;23.918;2023-09-19T06:27:39;93441.97;;;15.96;100.00
40592;BME280;26301;42.832;23.918;2023-09-19T06:30:08;93460.19;;;16.27;99.86
40592;BME280;26301;42.832;23.918;2023-09-19T06:32:34;93457.59;;;16.37;100.00
40592;BME280;26301;42.832;23.918;2023-09-19T06:35:01;93458.84;;;16.60;100.00
40592;BME280;26301;42.832;23.918;2023-09-19T06:37:28;93457.00;;;16.71;100.00
40592;BME280;26301;42.832;23.918;2023-09-19T06:39:54;93446.56;;;16.81;100.00
40592;BME280;26301;42.832;23.918;2023-09-19T06:42:20;93445.75;;;16.90;100.00
40592;BME280;26301;42.832;23.918;2023-09-19T06:44:48;93442.81;;;17.07;100.00
40592;BME280;26301;42.832;23.918;2023-09-19T06:47:13;93454.50;;;17.25;97.92
40592;BME280;26301;42.832;23.918;2023-09-19T06:49:39;93438.03;;;17.30;92.43
40592;BME280;26301;42.832;23.918;2023-09-19T06:52:05;93455.97;;;17.42;92.91
40592;BME280;26301;42.832;23.918;2023-09-19T06:54:31;93455.38;;;17.55;96.47
40592;BME280;26301;42.832;23.918;2023-09-19T06:56:57;93442.53;;;17.64;100.00
40592;BME280;26301;42.832;23.918;2023-09-19T06:59:25;93439.03;;;17.83;98.59
40592;BME280;26301;42.832;23.918;2023-09-19T07:01:51;93449.34;;;18.04;98.29
40592;BME280;26301;42.832;23.918;2023-09-19T07:04:16;93446.69;;;18.09;91.78
40592;BME280;26301;42.832;23.918;2023-09-19T07:06:48;93456.47;;;18.27;93.88
40592;BME280;26301;42.832;23.918;2023-09-19T07:09:15;93453.53;;;18.34;91.46
40592;BME280;26301;42.832;23.918;2023-09-19T07:11:41;93462.63;;;18.42;91.67
40592;BME280;26301;42.832;23.918;2023-09-19T07:14:08;93461.56;;;18.43;90.02
40592;BME280;26301;42.832;23.918;2023-09-19T07:16:37;93457.63;;;18.45;91.65
40592;BME280;26301;42.832;23.918;2023-09-19T07:19:04;93465.84;;;18.63;90.62
40592;BME280;26301;42.832;23.918;2023-09-19T07:21:30;93466.06;;;18.66;89.20
40592;BME280;26301;42.832;23.918;2023-09-19T07:23:56;93468.81;;;18.80;87.88
40592;BME280;26301;42.832;23.918;2023-09-19T07:26:21;93464.03;;;18.87;87.93
40592;BME280;26301;42.832;23.918;2023-09-19T07:28:47;93456.72;;;18.89;87.65
40592;BME280;26301;42.832;23.918;2023-09-19T07:31:12;93472.94;;;19.10;92.47
40592;BME280;26301;42.832;23.918;2023-09-19T07:33:39;93459.44;;;19.22;88.96
40592;BME280;26301;42.832;23.918;2023-09-19T07:36:05;93471.16;;;19.49;86.03
40592;BME280;26301;42.832;23.918;2023-09-19T07:38:35;93451.63;;;19.65;83.87
40592;BME280;26301;42.832;23.918;2023-09-19T07:41:01;93450.88;;;19.78;83.21
40592;BME280;26301;42.832;23.918;2023-09-19T07:43:28;93456.81;;;20.03;83.27
40592;BME280;26301;42.832;23.918;2023-09-19T07:45:53;93457.00;;;20.25;79.81
40592;BME280;26301;42.832;23.918;2023-09-19T07:48:19;93459.75;;;20.34;78.55
40592;BME280;26301;42.832;23.918;2023-09-19T07:50:44;93451.78;;;20.39;77.29
40592;BME280;26301;42.832;23.918;2023-09-19T07:53:11;93437.44;;;20.50;72.96
40592;BME280;26301;42.832;23.918;2023-09-19T07:55:39;93446.94;;;20.79;78.24
40592;BME280;26301;42.832;23.918;2023-09-19T07:58:06;93447.13;;;20.96;74.13
40592;BME280;26301;42.832;23.918;2023-09-19T08:00:32;93443.59;;;21.15;76.09
40592;BME280;26301;42.832;23.918;2023-09-19T08:03:00;93431.75;;;21.17;71.67
40592;BME280;26301;42.832;23.918;2023-09-19T08:05:26;93450.91;;;21.32;70.63
40592;BME280;26301;42.832;23.918;2023-09-19T08:07:51;93437.50;;;21.33;71.62
40592;BME280;26301;42.832;23.918;2023-09-19T08:10:19;93437.69;;;21.37;65.68
40592;BME280;26301;42.832;23.918;2023-09-19T08:12:46;93441.69;;;21.48;67.17
40592;BME280;26301;42.832;23.918;2023-09-19T08:15:14;93445.34;;;21.61;63.51
40592;BME280;26301;42.832;23.918;2023-09-19T08:17:41;93432.47;;;21.59;64.77
40592;BME280;26301;42.832;23.918;2023-09-19T08:20:08;93431.44;;;21.60;64.36
40592;BME280;26301;42.832;23.918;2023-09-19T08:22:51;93437.03;;;21.67;61.01
40592;BME280;26301;42.832;23.918;2023-09-19T08:25:18;93435.97;;;21.68;61.98
40592;BME280;26301;42.832;23.918;2023-09-19T08:27:45;93430.97;;;21.81;58.16
40592;BME280;26301;42.832;23.918;2023-09-19T08:30:20;93431.94;;;21.85;60.18
40592;BME280;26301;42.832;23.918;2023-09-19T08:32:50;93429.16;;;21.90;57.71
40592;BME280;26301;42.832;23.918;2023-09-19T08:35:15;93434.50;;;21.99;57.21
40592;BME280;26301;42.832;23.918;2023-09-19T08:37:42;93432.69;;;22.08;54.37
40592;BME280;26301;42.832;23.918;2023-09-19T08:40:10;93445.84;;;22.22;58.44
40592;BME280;26301;42.832;23.918;2023-09-19T08:45:14;93428.69;;;22.24;55.58
40592;BME280;26301;42.832;23.918;2023-09-19T08:47:46;93427.59;;;22.25;57.57
40592;BME280;26301;42.832;23.918;2023-09-19T08:50:19;93444.69;;;22.36;59.76
40592;BME280;26301;42.832;23.918;2023-09-19T08:52:51;93429.69;;;22.37;57.40
40592;BME280;26301;42.832;23.918;2023-09-19T08:55:20;93402.53;;;22.28;57.14
40592;BME280;26301;42.832;23.918;2023-09-19T08:57:52;93438.28;;;22.51;60.67
40592;BME280;26301;42.832;23.918;2023-09-19T09:00:26;93420.28;;;22.45;60.85
40592;BME280;26301;42.832;23.918;2023-09-19T09:02:54;93433.72;;;22.43;58.54
40592;BME280;26301;42.832;23.918;2023-09-19T09:05:22;93426.19;;;22.50;61.29
40592;BME280;26301;42.832;23.918;2023-09-19T09:07:52;93433.00;;;22.51;59.35
40592;BME280;26301;42.832;23.918;2023-09-19T09:10:20;93413.78;;;22.42;60.18
40592;BME280;26301;42.832;23.918;2023-09-19T09:12:51;93417.06;;;22.48;59.57
40592;BME280;26301;42.832;23.918;2023-09-19T09:15:22;93424.63;;;22.49;58.93
40592;BME280;26301;42.832;23.918;2023-09-19T09:17:52;93409.75;;;22.45;59.54
40592;BME280;26301;42.832;23.918;2023-09-19T09:20:21;93422.66;;;22.55;60.36
40592;BME280;26301;42.832;23.918;2023-09-19T09:22:54;93410.25;;;22.55;58.27
40592;BME280;26301;42.832;23.918;2023-09-19T09:25:20;93410.25;;;22.55;59.20
40592;BME280;26301;42.832;23.918;2023-09-19T09:27:59;93416.78;;;22.58;60.49
40592;BME280;26301;42.832;23.918;2023-09-19T09:30:36;93428.13;;;22.67;57.76
40592;BME280;26301;42.832;23.918;2023-09-19T09:33:10;93421.75;;;22.59;59.17
40592;BME280;26301;42.832;23.918;2023-09-19T09:35:53;93405.97;;;22.59;59.34
40592;BME280;26301;42.832;23.918;2023-09-19T09:38:21;93419.66;;;22.79;59.63
40592;BME280;26301;42.832;23.918;2023-09-19T09:40:52;93407.44;;;22.83;59.01
40592;BME280;26301;42.832;23.918;2023-09-19T09:43:31;93405.28;;;22.85;54.31
40592;BME280;26301;42.832;23.918;2023-09-19T09:48:47;93412.19;;;23.03;56.98
40592;BME280;26301;42.832;23.918;2023-09-19T09:51:33;93415.16;;;23.11;59.44
40592;BME280;26301;42.832;23.918;2023-09-19T09:54:12;93412.38;;;23.16;55.46
40592;BME280;26301;42.832;23.918;2023-09-19T09:59:20;93401.06;;;23.15;56.13
40592;BME280;26301;42.832;23.918;2023-09-19T10:01:49;93372.81;;;22.98;54.59
40592;BME280;26301;42.832;23.918;2023-09-19T10:04:28;93412.88;;;23.35;60.51
40592;BME280;26301;42.832;23.918;2023-09-19T10:07:02;93396.28;;;23.43;56.38
40592;BME280;26301;42.832;23.918;2023-09-19T10:09:45;93409.34;;;23.57;52.92
40592;BME280;26301;42.832;23.918;2023-09-19T10:12:13;93401.28;;;23.54;53.46
40592;BME280;26301;42.832;23.918;2023-09-19T10:14:43;93408.41;;;23.62;53.08
40592;BME280;26301;42.832;23.918;2023-09-19T10:17:13;93402.19;;;23.58;54.59
40592;BME280;26301;42.832;23.918;2023-09-19T10:19:55;93394.44;;;23.52;53.17
40592;BME280;26301;42.832;23.918;2023-09-19T10:22:28;93399.25;;;23.59;53.49
40592;BME280;26301;42.832;23.918;2023-09-19T10:24:57;93389.47;;;23.51;53.98
40592;BME280;26301;42.832;23.918;2023-09-19T10:27:26;93400.03;;;23.60;53.00
40592;BME280;26301;42.832;23.918;2023-09-19T10:29:52;93389.31;;;23.47;52.79
40592;BME280;26301;42.832;23.918;2023-09-19T10:32:22;93383.44;;;23.50;51.44
40592;BME280;26301;42.832;23.918;2023-09-19T10:34:49;93389.16;;;23.52;54.21
40592;BME280;26301;42.832;23.918;2023-09-19T10:37:20;93399.88;;;23.56;53.94
40592;BME280;26301;42.832;23.918;2023-09-19T10:39:47;93395.06;;;23.58;52.03
40592;BME280;26301;42.832;23.918;2023-09-19T10:42:20;93377.53;;;23.45;54.90
40592;BME280;26301;42.832;23.918;2023-09-19T10:44:47;93386.22;;;23.63;59.59
40592;BME280;26301;42.832;23.918;2023-09-19T10:47:19;93376.50;;;23.72;55.50
40592;BME280;26301;42.832;23.918;2023-09-19T10:49:48;93388.91;;;23.89;54.54
40592;BME280;26301;42.832;23.918;2023-09-19T10:52:15;93379.28;;;23.84;52.47
40592;BME280;26301;42.832;23.918;2023-09-19T10:54:49;93372.28;;;23.88;56.55
40592;BME280;26301;42.832;23.918;2023-09-19T10:57:23;93381.13;;;24.01;53.83
40592;BME280;26301;42.832;23.918;2023-09-19T11:00:08;93372.13;;;24.02;54.92
40592;BME280;26301;42.832;23.918;2023-09-19T11:05:40;93375.97;;;24.22;53.33
40592;BME280;26301;42.832;23.918;2023-09-19T11:08:10;93383.38;;;24.37;52.22
40592;BME280;26301;42.832;23.918;2023-09-19T11:10:49;93378.09;;;24.37;51.90
40592;BME280;26301;42.832;23.918;2023-09-19T11:13:31;93337.34;;;24.09;53.55
40592;BME280;26301;42.832;23.918;2023-09-19T11:26:50;93358.94;;;24.58;50.55
40592;BME280;26301;42.832;23.918;2023-09-19T11:29:27;93372.13;;;24.58;53.87
40592;BME280;26301;42.832;23.918;2023-09-19T11:31:54;93374.94;;;24.61;53.72
40592;BME280;26301;42.832;23.918;2023-09-19T11:34:43;93368.53;;;24.71;52.86
40592;BME280;26301;42.832;23.918;2023-09-19T11:40:07;93363.88;;;24.68;52.10
40592;BME280;26301;42.832;23.918;2023-09-19T11:48:14;93359.31;;;24.86;51.57
40592;BME280;26301;42.832;23.918;2023-09-19T11:50:42;93350.59;;;24.85;50.50
40592;BME280;26301;42.832;23.918;2023-09-19T11:53:11;93343.03;;;24.75;49.50
40592;BME280;26301;42.832;23.918;2023-09-19T11:55:38;93340.22;;;24.80;53.33
40592;BME280;26301;42.832;23.918;2023-09-19T11:58:07;93336.75;;;24.89;51.17
40592;BME280;26301;42.832;23.918;2023-09-19T12:00:35;93331.13;;;24.90;50.42
40592;BME280;26301;42.832;23.918;2023-09-19T12:03:08;93337.19;;;24.91;49.92
40592;BME280;26301;42.832;23.918;2023-09-19T12:05:35;93328.69;;;24.85;49.39
40592;BME280;26301;42.832;23.918;2023-09-19T12:08:03;93323.34;;;24.94;49.67
40592;BME280;26301;42.832;23.918;2023-09-19T12:10:33;93325.00;;;25.07;50.21
40592;BME280;26301;42.832;23.918;2023-09-19T12:12:59;93331.50;;;25.09;48.05
40592;BME280;26301;42.832;23.918;2023-09-19T12:15:28;93331.81;;;25.08;49.02
40592;BME280;26301;42.832;23.918;2023-09-19T12:17:59;93325.50;;;25.00;50.10
40592;BME280;26301;42.832;23.918;2023-09-19T12:20:41;93326.44;;;24.96;49.80
40592;BME280;26301;42.832;23.918;2023-09-19T12:23:13;93325.34;;;24.97;49.18
40592;BME280;26301;42.832;23.918;2023-09-19T12:25:43;93319.28;;;24.96;51.14
40592;BME280;26301;42.832;23.918;2023-09-19T12:28:12;93311.75;;;24.86;50.28
40592;BME280;26301;42.832;23.918;2023-09-19T12:30:38;93321.16;;;24.96;50.57
40592;BME280;26301;42.832;23.918;2023-09-19T12:33:18;93326.31;;;24.92;51.25
40592;BME280;26301;42.832;23.918;2023-09-19T12:35:51;93327.09;;;24.93;49.04
40592;BME280;26301;42.832;23.918;2023-09-19T12:38:25;93330.06;;;24.91;49.88
40592;BME280;26301;42.832;23.918;2023-09-19T12:40:57;93328.53;;;24.81;50.93
40592;BME280;26301;42.832;23.918;2023-09-19T12:43:28;93320.94;;;24.80;50.38
40592;BME280;26301;42.832;23.918;2023-09-19T12:45:58;93329.59;;;24.89;51.75
40592;BME280;26301;42.832;23.918;2023-09-19T12:48:26;93317.94;;;24.90;50.11
40592;BME280;26301;42.832;23.918;2023-09-19T12:51:10;93332.63;;;25.00;51.89
40592;BME280;26301;42.832;23.918;2023-09-19T12:53:41;93332.84;;;24.95;49.04
40592;BME280;26301;42.832;23.918;2023-09-19T12:56:12;93311.72;;;24.65;50.45
40592;BME280;26301;42.832;23.918;2023-09-19T13:01:19;93340.69;;;24.82;51.86
40592;BME280;26301;42.832;23.918;2023-09-19T13:03:44;93318.44;;;24.83;49.39
40592;BME280;26301;42.832;23.918;2023-09-19T13:06:11;93331.31;;;24.85;51.06
40592;BME280;26301;42.832;23.918;2023-09-19T13:08:40;93331.59;;;24.92;50.30
40592;BME280;26301;42.832;23.918;2023-09-19T13:11:19;93318.06;;;24.94;51.35
40592;BME280;26301;42.832;23.918;2023-09-19T13:13:51;93327.59;;;24.86;50.28
40592;BME280;26301;42.832;23.918;2023-09-19T13:16:21;93323.56;;;24.89;49.51
40592;BME280;26301;42.832;23.918;2023-09-19T13:18:52;93321.09;;;24.83;50.43
40592;BME280;26301;42.832;23.918;2023-09-19T13:21:32;93306.06;;;24.75;48.80
40592;BME280;26301;42.832;23.918;2023-09-19T13:24:28;93319.50;;;24.91;50.65
40592;BME280;26301;42.832;23.918;2023-09-19T13:27:05;93309.28;;;24.81;52.23
40592;BME280;26301;42.832;23.918;2023-09-19T13:29:32;93303.53;;;24.79;52.18
40592;BME280;26301;42.832;23.918;2023-09-19T13:31:57;93307.03;;;24.71;49.78
40592;BME280;26301;42.832;23.918;2023-09-19T13:34:23;93304.25;;;24.67;51.50
40592;BME280;26301;42.832;23.918;2023-09-19T13:36:50;93313.56;;;24.64;49.40
40592;BME280;26301;42.832;23.918;2023-09-19T13:39:16;93296.28;;;24.46;49.86
40592;BME280;26301;42.832;23.918;2023-09-19T13:41:44;93317.06;;;24.39;53.88
40592;BME280;26301;42.832;23.918;2023-09-19T13:44:09;93305.75;;;24.30;52.61
40592;BME280;26301;42.832;23.918;2023-09-19T13:46:36;93316.16;;;24.35;53.65
40592;BME280;26301;42.832;23.918;2023-09-19T13:49:06;93303.44;;;24.28;55.47
40592;BME280;26301;42.832;23.918;2023-09-19T13:51:31;93303.13;;;24.30;54.54
40592;BME280;26301;42.832;23.918;2023-09-19T13:53:57;93306.72;;;24.25;57.88
40592;BME280;26301;42.832;23.918;2023-09-19T13:56:25;93320.19;;;24.32;58.10
40592;BME280;26301;42.832;23.918;2023-09-19T13:58:56;93310.09;;;24.34;55.93
40592;BME280;26301;42.832;23.918;2023-09-19T14:01:27;93309.00;;;24.44;55.65
40592;BME280;26301;42.832;23.918;2023-09-19T14:03:56;93327.25;;;24.58;56.09
40592;BME280;26301;42.832;23.918;2023-09-19T14:06:22;93322.41;;;24.69;50.46
40592;BME280;26301;42.832;23.918;2023-09-19T14:08:48;93317.59;;;24.71;49.46
40592;BME280;26301;42.832;23.918;2023-09-19T14:11:15;93303.00;;;24.64;49.32
40592;BME280;26301;42.832;23.918;2023-09-19T14:13:41;93298.81;;;24.63;49.03
40592;BME280;26301;42.832;23.918;2023-09-19T14:16:09;93309.16;;;24.77;46.37
40592;BME280;26301;42.832;23.918;2023-09-19T14:18:35;93307.97;;;24.66;46.54
40592;BME280;26301;42.832;23.918;2023-09-19T14:21:05;93317.88;;;24.69;48.49
40592;BME280;26301;42.832;23.918;2023-09-19T14:23:37;93319.47;;;24.70;51.08
40592;BME280;26301;42.832;23.918;2023-09-19T14:26:03;93305.78;;;24.68;49.91
40592;BME280;26301;42.832;23.918;2023-09-19T14:28:30;93324.50;;;24.84;47.47
40592;BME280;26301;42.832;23.918;2023-09-19T14:31:03;93307.91;;;24.75;46.49
40592;BME280;26301;42.832;23.918;2023-09-19T14:33:29;93309.69;;;24.62;47.07
40592;BME280;26301;42.832;23.918;2023-09-19T14:35:54;93303.81;;;24.56;51.17
40592;BME280;26301;42.832;23.918;2023-09-19T14:38:20;93319.63;;;24.65;46.29
40592;BME280;26301;42.832;23.918;2023-09-19T14:40:46;93308.53;;;24.42;47.54
40592;BME280;26301;42.832;23.918;2023-09-19T14:43:12;93313.81;;;24.42;48.29
40592;BME280;26301;42.832;23.918;2023-09-19T14:45:37;93315.81;;;24.36;51.30
40592;BME280;26301;42.832;23.918;2023-09-19T14:48:03;93325.44;;;24.41;48.55
40592;BME280;26301;42.832;23.918;2023-09-19T14:50:30;93322.19;;;24.35;50.91
40592;BME280;26301;42.832;23.918;2023-09-19T14:52:56;93319.56;;;24.35;53.62
40592;BME280;26301;42.832;23.918;2023-09-19T14:55:23;93324.38;;;24.33;56.74
40592;BME280;26301;42.832;23.918;2023-09-19T14:57:49;93311.50;;;24.32;54.07
40592;BME280;26301;42.832;23.918;2023-09-19T15:00:17;93306.75;;;24.16;52.11
40592;BME280;26301;42.832;23.918;2023-09-19T15:02:45;93308.00;;;24.10;51.36
40592;BME280;26301;42.832;23.918;2023-09-19T15:05:13;93310.94;;;24.09;53.07
40592;BME280;26301;42.832;23.918;2023-09-19T15:07:40;93309.72;;;24.06;55.69
40592;BME280;26301;42.832;23.918;2023-09-19T15:10:06;93296.25;;;23.99;54.71
40592;BME280;26301;42.832;23.918;2023-09-19T15:12:36;93306.31;;;24.06;56.34
40592;BME280;26301;42.832;23.918;2023-09-19T15:15:06;93296.09;;;23.95;57.20
40592;BME280;26301;42.832;23.918;2023-09-19T15:17:35;93303.06;;;23.91;58.92
40592;BME280;26301;42.832;23.918;2023-09-19T15:20:01;93315.34;;;23.96;61.16
40592;BME280;26301;42.832;23.918;2023-09-19T15:22:27;93311.00;;;23.91;61.87
40592;BME280;26301;42.832;23.918;2023-09-19T15:24:53;93308.69;;;23.90;61.98
40592;BME280;26301;42.832;23.918;2023-09-19T15:27:18;93309.94;;;23.84;61.29
40592;BME280;26301;42.832;23.918;2023-09-19T15:29:46;93300.78;;;23.72;63.42
40592;BME280;26301;42.832;23.918;2023-09-19T15:32:11;93306.06;;;23.72;64.27
40592;BME280;26301;42.832;23.918;2023-09-19T15:34:37;93295.06;;;23.62;64.71
40592;BME280;26301;42.832;23.918;2023-09-19T15:37:03;93299.38;;;23.58;65.06
40592;BME280;26301;42.832;23.918;2023-09-19T15:39:31;93310.25;;;23.56;65.56
40592;BME280;26301;42.832;23.918;2023-09-19T15:42:00;93313.81;;;23.51;66.13
40592;BME280;26301;42.832;23.918;2023-09-19T15:44:26;93281.25;;;23.21;66.87
40592;BME280;26301;42.832;23.918;2023-09-19T15:46:52;93312.41;;;23.37;66.85
40592;BME280;26301;42.832;23.918;2023-09-19T15:49:18;93315.66;;;23.34;67.11
40592;BME280;26301;42.832;23.918;2023-09-19T15:51:43;93311.63;;;23.19;67.52
40592;BME280;26301;42.832;23.918;2023-09-19T15:54:11;93318.91;;;23.13;68.76
40592;BME280;26301;42.832;23.918;2023-09-19T15:56:44;93324.47;;;23.03;69.80
40592;BME280;26301;42.832;23.918;2023-09-19T15:59:10;93322.25;;;22.79;68.81
40592;BME280;26301;42.832;23.918;2023-09-19T16:01:40;93333.09;;;22.77;69.62
40592;BME280;26301;42.832;23.918;2023-09-19T16:04:08;93336.91;;;22.63;71.26
40592;BME280;26301;42.832;23.918;2023-09-19T16:06:35;93339.81;;;22.52;71.54
40592;BME280;26301;42.832;23.918;2023-09-19T16:09:01;93342.69;;;22.33;72.24
40592;BME280;26301;42.832;23.918;2023-09-19T16:11:32;93334.66;;;22.16;72.25
40592;BME280;26301;42.832;23.918;2023-09-19T16:13:58;93342.06;;;22.14;72.23
40592;BME280;26301;42.832;23.918;2023-09-19T16:16:26;93348.97;;;22.01;72.74
40592;BME280;26301;42.832;23.918;2023-09-19T16:18:56;93352.47;;;21.88;73.71
40592;BME280;26301;42.832;23.918;2023-09-19T16:21:28;93334.19;;;21.60;73.38
40592;BME280;26301;42.832;23.918;2023-09-19T16:23:55;93330.34;;;21.44;73.33
40592;BME280;26301;42.832;23.918;2023-09-19T16:26:22;93348.44;;;21.45;74.07
40592;BME280;26301;42.832;23.918;2023-09-19T16:28:53;93341.75;;;21.26;73.84
40592;BME280;26301;42.832;23.918;2023-09-19T16:31:20;93346.16;;;21.02;74.65
40592;BME280;26301;42.832;23.918;2023-09-19T16:33:47;93341.44;;;20.49;73.11
40592;BME280;26301;42.832;23.918;2023-09-19T16:36:17;93342.88;;;20.28;75.06
40592;BME280;26301;42.832;23.918;2023-09-19T16:38:45;93353.16;;;20.10;74.70
40592;BME280;26301;42.832;23.918;2023-09-19T16:41:12;93341.06;;;19.96;74.13
40592;BME280;26301;42.832;23.918;2023-09-19T16:43:38;93339.28;;;19.77;76.08
40592;BME280;26301;42.832;23.918;2023-09-19T16:46:05;93354.00;;;19.73;76.39
40592;BME280;26301;42.832;23.918;2023-09-19T16:48:38;93344.72;;;19.43;78.92
40592;BME280;26301;42.832;23.918;2023-09-19T16:51:05;93354.94;;;19.26;79.65
40592;BME280;26301;42.832;23.918;2023-09-19T16:53:34;93358.19;;;18.99;81.19
40592;BME280;26301;42.832;23.918;2023-09-19T16:56:10;93358.84;;;18.85;82.16
40592;BME280;26301;42.832;23.918;2023-09-19T16:58:40;93341.00;;;18.68;83.19
40592;BME280;26301;42.832;23.918;2023-09-19T17:01:10;93353.56;;;18.66;82.75
40592;BME280;26301;42.832;23.918;2023-09-19T17:03:37;93360.69;;;18.61;84.06
40592;BME280;26301;42.832;23.918;2023-09-19T17:06:04;93354.63;;;18.17;86.74
40592;BME280;26301;42.832;23.918;2023-09-19T17:08:29;93364.91;;;18.09;87.85
40592;BME280;26301;42.832;23.918;2023-09-19T17:13:29;93356.00;;;17.75;89.52
40592;BME280;26301;42.832;23.918;2023-09-19T17:18:33;93374.13;;;17.62;90.91
40592;BME280;26301;42.832;23.918;2023-09-19T17:21:00;93363.06;;;17.35;92.04